Time;durP1;ratioP1;P1;durP2;ratioP2;P2;SDS_P1;SDS_P2;PMS_P1;PMS_P2;Temp;Humidity;BMP_temperature;BMP_pressure;BME280_temperature;BME280_humidity;BME280_pressure;Samples;Min_cycle;Max_cycle;Signal;HPM_P1;HPM_P2
2021/04/10 00:01:21;;;;;;;37.17;9.95;;;;;;;8.43;68.22;101263.78;5082236;28;20450;-76
2021/04/10 00:03:47;;;;;;;25.13;8.27;;;;;;;8.49;68.77;101268.53;5064228;28;20063;-76
2021/04/10 00:06:13;;;;;;;28.95;9.88;;;;;;;8.41;68.99;101268.31;5064571;28;20755;-77
2021/04/10 00:08:39;;;;;;;33.20;9.57;;;;;;;8.41;68.76;101270.03;5073965;28;20051;-77
2021/04/10 00:11:05;;;;;;;31.92;8.88;;;;;;;8.32;68.77;101267.19;5073056;28;20048;-77
2021/04/10 00:13:33;;;;;;;33.80;8.73;;;;;;;8.34;68.59;101267.09;5057226;28;20072;-77
2021/04/10 00:15:59;;;;;;;20.95;7.50;;;;;;;8.34;68.19;101264.47;5077874;28;20117;-77
2021/04/10 00:18:25;;;;;;;22.38;7.95;;;;;;;8.31;68.54;101268.16;5073418;28;20048;-77
2021/04/10 00:20:51;;;;;;;24.80;7.15;;;;;;;8.28;68.52;101260.56;5062608;28;20538;-77
2021/04/10 00:23:17;;;;;;;22.90;7.22;;;;;;;8.27;68.85;101258.91;5053529;28;20817;-77
2021/04/10 00:25:43;;;;;;;24.55;7.30;;;;;;;8.19;68.49;101265.66;5066956;28;20056;-77
2021/04/10 00:28:09;;;;;;;21.58;7.25;;;;;;;8.17;68.52;101251.88;5069894;28;20084;-77
2021/04/10 00:30:35;;;;;;;26.33;7.88;;;;;;;8.15;68.54;101256.41;5058347;28;20116;-77
2021/04/10 00:33:01;;;;;;;25.17;6.95;;;;;;;8.17;68.54;101260.56;5062819;28;20056;-77
2021/04/10 00:35:29;;;;;;;23.70;7.57;;;;;;;8.10;68.56;101269.84;5062447;28;20056;-78
2021/04/10 00:37:58;;;;;;;19.05;7.32;;;;;;;8.12;69.09;101276.59;5058296;28;20051;-78
2021/04/10 00:40:24;;;;;;;20.75;8.18;;;;;;;8.09;68.83;101278.63;5085976;28;20112;-77
2021/04/10 00:42:50;;;;;;;22.08;6.88;;;;;;;8.14;68.66;101286.13;5079452;28;20066;-75
2021/04/10 00:45:17;;;;;;;22.83;6.10;;;;;;;8.04;68.60;101278.16;5067555;28;20077;-76
2021/04/10 00:47:44;;;;;;;27.83;6.72;;;;;;;8.08;68.61;101290.03;5080386;28;20068;-75
2021/04/10 00:50:10;;;;;;;20.20;5.78;;;;;;;8.07;68.25;101280.53;5065528;28;20088;-75
2021/04/10 00:52:37;;;;;;;20.10;5.50;;;;;;;8.09;68.44;101286.44;5063044;28;20117;-75
2021/04/10 00:55:09;;;;;;;32.00;6.32;;;;;;;8.06;68.34;101289.31;5075113;28;20054;-75
2021/04/10 00:57:35;;;;;;;28.60;7.15;;;;;;;8.03;68.13;101279.91;5049718;28;20056;-75
2021/04/10 01:00:03;;;;;;;27.25;6.60;;;;;;;7.97;68.31;101279.56;5045357;28;20060;-75
2021/04/10 01:02:30;;;;;;;22.55;6.38;;;;;;;8.01;68.75;101278.38;5064549;28;20056;-75
2021/04/10 01:04:56;;;;;;;21.10;6.15;;;;;;;7.99;68.18;101275.06;5056289;28;20503;-76
2021/04/10 01:07:22;;;;;;;26.10;7.25;;;;;;;7.92;68.24;101272.91;5061907;28;20469;-75
2021/04/10 01:09:52;;;;;;;24.13;6.45;;;;;;;7.95;68.39;101279.69;5085591;28;20055;-75
2021/04/10 01:12:42;;;;;;;18.38;6.72;;;;;;;7.93;68.75;101285.03;5056207;28;20052;-75
2021/04/10 01:15:22;;;;;;;30.77;6.38;;;;;;;7.91;68.62;101293.94;5065629;28;20084;-76
2021/04/10 01:17:56;;;;;;;22.05;5.82;;;;;;;7.88;68.31;101295.00;5059498;28;20700;-76
2021/04/10 01:20:48;;;;;;;34.72;10.73;;;;;;;7.85;69.40;101295.22;5056452;28;20079;-75
2021/04/10 01:23:36;;;;;;;22.48;6.03;;;;;;;7.86;68.94;101296.06;5068043;28;20133;-74
2021/04/10 01:26:02;;;;;;;22.15;5.78;;;;;;;7.80;69.30;101297.38;5071814;28;20541;-75
2021/04/10 01:29:06;;;;;;;21.08;5.78;;;;;;;7.80;69.06;101299.13;5079573;28;20139;-76
2021/04/10 01:31:45;;;;;;;17.05;5.25;;;;;;;7.81;68.89;101288.56;5053543;28;20846;-75
2021/04/10 01:34:17;;;;;;;16.88;5.50;;;;;;;7.82;68.85;101295.47;5054266;28;20083;-76
2021/04/10 01:36:45;;;;;;;18.48;5.65;;;;;;;7.83;69.04;101283.25;5078712;28;20675;-76
2021/04/10 01:39:13;;;;;;;24.20;6.53;;;;;;;7.78;69.01;101286.22;5074331;28;20056;-76
2021/04/10 01:41:49;;;;;;;22.75;6.95;;;;;;;7.80;68.66;101288.69;5053989;28;20135;-76
2021/04/10 01:44:17;;;;;;;29.10;5.63;;;;;;;7.77;68.52;101288.94;5079720;28;20051;-75
2021/04/10 01:46:46;;;;;;;17.17;5.90;;;;;;;7.76;68.78;101290.69;5075510;28;20082;-75
2021/04/10 01:49:12;;;;;;;19.05;5.82;;;;;;;7.69;68.69;101290.34;5067880;28;21000;-75
2021/04/10 01:51:39;;;;;;;21.73;5.95;;;;;;;7.70;68.90;101297.25;5068692;28;20395;-75
2021/04/10 01:54:07;;;;;;;21.40;6.00;;;;;;;7.65;68.75;101283.69;5054108;28;20048;-75
2021/04/10 01:56:36;;;;;;;23.47;5.47;;;;;;;7.68;68.28;101293.91;5064423;28;20826;-75
2021/04/10 01:59:03;;;;;;;22.60;6.85;;;;;;;7.68;69.03;101286.09;5059139;28;20324;-76
2021/04/10 02:01:31;;;;;;;18.55;5.78;;;;;;;7.64;69.18;101296.84;5057510;28;20714;-75
2021/04/10 02:03:59;;;;;;;22.50;5.27;;;;;;;7.67;69.02;101299.25;5076690;28;20059;-77
2021/04/10 02:06:26;;;;;;;25.85;6.00;;;;;;;7.64;68.28;101302.91;5064233;28;20110;-76
2021/04/10 02:08:54;;;;;;;18.40;5.38;;;;;;;7.59;69.06;101293.78;5078407;28;20831;-76
2021/04/10 02:11:21;;;;;;;12.30;5.20;;;;;;;7.59;68.64;101301.63;5082845;28;20060;-76
2021/04/10 02:13:48;;;;;;;17.75;5.55;;;;;;;7.52;68.54;101296.00;5073604;28;20083;-75
2021/04/10 02:16:15;;;;;;;18.85;4.78;;;;;;;7.55;68.36;101298.41;5079703;28;20052;-74
2021/04/10 02:18:41;;;;;;;17.88;4.65;;;;;;;7.54;69.13;101296.72;5078158;28;20052;-75
2021/04/10 02:21:09;;;;;;;21.38;5.65;;;;;;;7.50;69.13;101296.09;5064267;28;20056;-74
2021/04/10 02:23:42;;;;;;;26.48;6.47;;;;;;;7.53;69.33;101289.84;5068092;28;20052;-76
2021/04/10 02:26:10;;;;;;;17.40;4.53;;;;;;;7.53;68.38;101303.72;5065048;28;20048;-76
2021/04/10 02:28:36;;;;;;;25.80;6.28;;;;;;;7.48;69.19;101299.78;5079509;28;20047;-75
2021/04/10 02:31:04;;;;;;;16.85;5.10;;;;;;;7.49;68.56;101298.84;5058866;28;20055;-75
2021/04/10 02:33:41;;;;;;;17.17;5.70;;;;;;;7.42;68.78;101292.41;5082951;28;20048;-75
2021/04/10 02:36:10;;;;;;;19.38;5.20;;;;;;;7.42;69.17;101300.25;5060323;28;20063;-75
2021/04/10 02:38:38;;;;;;;15.68;4.65;;;;;;;7.45;68.32;101313.09;5082951;28;20044;-76
2021/04/10 02:41:16;;;;;;;22.85;6.35;;;;;;;7.45;68.98;101300.84;5083372;28;20060;-75
2021/04/10 02:43:51;;;;;;;17.65;5.32;;;;;;;7.37;69.17;101281.47;5082797;28;20044;-75
2021/04/10 02:46:18;;;;;;;18.98;5.60;;;;;;;7.38;68.95;101290.97;5067133;28;20052;-75
2021/04/10 02:48:52;;;;;;;23.70;6.27;;;;;;;7.36;69.16;101291.09;5072170;28;20075;-76
2021/04/10 02:51:20;;;;;;;15.85;4.72;;;;;;;7.32;70.17;101297.50;5070450;28;20054;-76
2021/04/10 02:53:48;;;;;;;28.38;7.28;;;;;;;7.32;69.21;101300.09;5053783;28;20133;-75
2021/04/10 02:56:15;;;;;;;;;;;;;;;7.29;69.65;101298.56;5066036;28;20537;-75
2021/04/10 02:58:46;;;;;;;22.85;6.20;;;;;;;7.29;69.47;101298.56;5074763;28;20327;-75
2021/04/10 03:01:15;;;;;;;14.90;5.57;;;;;;;7.24;69.97;101299.84;5051311;28;20052;-75
2021/04/10 03:03:42;;;;;;;21.27;5.93;;;;;;;7.25;69.58;101298.88;5062864;28;20063;-74
2021/04/10 03:06:08;;;;;;;20.08;5.95;;;;;;;7.22;69.53;101286.91;5056677;28;20452;-74
2021/04/10 03:08:35;;;;;;;16.65;6.28;;;;;;;7.24;69.58;101295.44;5069861;28;20048;-75
2021/04/10 03:11:01;;;;;;;20.52;6.30;;;;;;;7.22;69.74;101293.91;5059457;28;20545;-75
2021/04/10 03:13:27;;;;;;;23.10;6.10;;;;;;;7.18;70.25;101297.69;5082219;28;20563;-74
2021/04/10 03:15:54;;;;;;;16.35;5.60;;;;;;;7.15;70.10;101290.06;5062283;28;20056;-74
2021/04/10 03:18:22;;;;;;;21.20;6.18;;;;;;;7.16;70.65;101297.78;5069797;28;20056;-74
2021/04/10 03:20:49;;;;;;;23.63;6.37;;;;;;;7.12;70.59;101298.97;5056123;28;20063;-74
2021/04/10 03:23:15;;;;;;;20.25;6.35;;;;;;;7.07;70.37;101312.31;5056775;28;20829;-75
2021/04/10 03:25:42;;;;;;;25.42;7.22;;;;;;;7.07;70.53;101298.44;5081436;28;20128;-74
2021/04/10 03:28:10;;;;;;;21.75;6.38;;;;;;;7.05;70.37;101305.56;5063570;28;20149;-75
2021/04/10 03:30:37;;;;;;;20.90;6.63;;;;;;;7.00;70.56;101313.72;5052270;28;20494;-75
2021/04/10 03:33:04;;;;;;;24.75;7.47;;;;;;;7.05;70.41;101305.56;5070534;28;20048;-75
2021/04/10 03:35:32;;;;;;;21.85;6.72;;;;;;;7.07;70.87;101303.66;5078869;28;20087;-75
2021/04/10 03:38:00;;;;;;;28.27;7.90;;;;;;;7.06;70.44;101302.84;5065019;28;20059;-75
2021/04/10 03:40:26;;;;;;;18.63;7.43;;;;;;;6.99;70.57;101301.63;5058932;28;20113;-75
2021/04/10 03:42:56;;;;;;;22.40;7.55;;;;;;;7.02;70.31;101303.19;5080395;28;20748;-75
2021/04/10 03:45:23;;;;;;;34.88;7.95;;;;;;;6.97;70.55;101308.72;5071231;28;20060;-75
2021/04/10 03:47:53;;;;;;;20.65;7.22;;;;;;;6.94;70.50;101322.00;5044116;28;20075;-75
2021/04/10 03:50:21;;;;;;;22.30;6.80;;;;;;;6.95;70.49;101315.81;5075862;28;20059;-75
2021/04/10 03:52:47;;;;;;;20.80;8.18;;;;;;;6.94;69.98;101322.00;5060916;28;20052;-75
2021/04/10 03:55:15;;;;;;;18.77;7.32;;;;;;;6.94;70.81;101322.00;5081236;28;20407;-75
2021/04/10 03:57:41;;;;;;;23.67;7.68;;;;;;;6.89;70.38;101319.69;5054370;28;20056;-75
2021/04/10 04:00:08;;;;;;;16.95;6.65;;;;;;;6.85;70.64;101333.09;5060804;28;20055;-74
2021/04/10 04:02:34;;;;;;;27.95;8.05;;;;;;;6.90;71.09;101338.81;5058403;28;20635;-74
2021/04/10 04:05:00;;;;;;;24.45;7.13;;;;;;;6.90;70.14;101334.41;5073101;28;20052;-74
2021/04/10 04:07:26;;;;;;;18.35;6.60;;;;;;;6.87;70.61;101331.19;5055320;28;20048;-75
2021/04/10 04:09:52;;;;;;;26.65;8.10;;;;;;;6.85;70.51;101339.13;5081807;28;20070;-75
2021/04/10 04:12:18;;;;;;;25.20;8.35;;;;;;;6.91;70.60;101343.06;5076982;28;20130;-75
2021/04/10 04:14:44;;;;;;;23.67;7.97;;;;;;;6.84;70.62;101341.84;5050331;28;20044;-76
2021/04/10 04:17:10;;;;;;;25.15;9.95;;;;;;;6.78;70.84;101337.06;5058535;28;20063;-76
2021/04/10 04:19:36;;;;;;;26.35;8.32;;;;;;;6.79;70.71;101338.75;5077942;28;20143;-75
2021/04/10 04:22:03;;;;;;;21.13;8.00;;;;;;;6.80;71.03;101338.63;5082800;28;20481;-74
2021/04/10 04:24:30;;;;;;;26.35;8.88;;;;;;;6.79;71.24;101349.16;5050793;28;20235;-74
2021/04/10 04:26:57;;;;;;;22.10;8.95;;;;;;;6.82;71.07;101339.34;5067963;28;20060;-74
2021/04/10 04:29:24;;;;;;;21.48;8.88;;;;;;;6.81;71.17;101337.69;5079266;28;20139;-74
2021/04/10 04:31:51;;;;;;;23.88;7.68;;;;;;;6.82;70.66;101344.56;5068276;28;20060;-74
2021/04/10 04:34:17;;;;;;;17.67;7.28;;;;;;;6.79;70.38;101336.13;5074539;28;20058;-74
2021/04/10 04:36:43;;;;;;;24.02;7.55;;;;;;;6.75;69.93;101347.72;5042614;28;20056;-74
2021/04/10 04:39:09;;;;;;;28.50;8.90;;;;;;;6.77;70.71;101348.44;5059982;28;20070;-74
2021/04/10 04:41:35;;;;;;;27.88;8.30;;;;;;;6.76;70.69;101350.19;5072209;28;20109;-74
2021/04/10 04:44:01;;;;;;;20.52;7.75;;;;;;;6.69;70.23;101355.03;5080253;28;20553;-74
2021/04/10 04:46:27;;;;;;;26.77;8.23;;;;;;;6.72;69.98;101351.34;5066149;28;20078;-74
2021/04/10 04:48:53;;;;;;;25.52;8.30;;;;;;;6.71;70.75;101358.34;5038263;28;20053;-72
2021/04/10 04:51:20;;;;;;;14.80;6.65;;;;;;;6.75;69.89;101365.97;5074171;28;20097;-72
2021/04/10 04:53:46;;;;;;;24.38;8.13;;;;;;;6.75;70.26;101360.75;5058995;28;20044;-72
2021/04/10 04:56:13;;;;;;;23.83;8.43;;;;;;;6.76;70.71;101363.22;5058034;28;20795;-72
2021/04/10 04:58:39;;;;;;;24.92;8.70;;;;;;;6.72;70.11;101364.41;5051780;28;20048;-72
2021/04/10 05:01:05;;;;;;;19.20;7.38;;;;;;;6.75;70.43;101366.81;5059318;28;20079;-73
2021/04/10 05:03:31;;;;;;;21.25;6.90;;;;;;;6.75;70.34;101368.59;5080816;28;20056;-72
2021/04/10 05:05:57;;;;;;;22.67;7.47;;;;;;;6.77;70.84;101370.13;5071447;28;20048;-72
2021/04/10 05:08:23;;;;;;;23.92;7.50;;;;;;;6.75;70.79;101368.59;5065661;28;20109;-72
2021/04/10 05:10:49;;;;;;;20.23;7.78;;;;;;;6.67;70.62;101361.28;5076392;28;20058;-72
2021/04/10 05:13:17;;;;;;;22.27;7.97;;;;;;;6.72;70.43;101373.06;5075267;28;20055;-72
2021/04/10 05:15:43;;;;;;;21.35;8.43;;;;;;;6.71;70.19;101366.19;5061937;28;20458;-72
2021/04/10 05:18:09;;;;;;;18.45;7.28;;;;;;;6.75;70.29;101377.22;5071959;28;20063;-72
2021/04/10 05:20:35;;;;;;;21.75;7.57;;;;;;;6.73;70.02;101377.31;5063149;28;20105;-73
2021/04/10 05:23:01;;;;;;;26.70;7.82;;;;;;;6.73;70.48;101369.50;5060915;28;20395;-73
2021/04/10 05:25:27;;;;;;;25.25;8.00;;;;;;;6.79;70.47;101375.25;5083325;28;20052;-73
2021/04/10 05:27:54;;;;;;;24.75;8.32;;;;;;;6.72;70.47;101365.25;5079180;28;20097;-73
2021/04/10 05:30:20;;;;;;;24.75;8.45;;;;;;;6.77;69.65;101379.72;5074740;28;20496;-73
2021/04/10 05:32:47;;;;;;;24.73;8.30;;;;;;;6.73;69.90;101377.31;5071935;28;20079;-73
2021/04/10 05:35:17;;;;;;;22.88;7.93;;;;;;;6.76;70.36;101373.66;5080163;28;20048;-73
2021/04/10 05:37:43;;;;;;;22.05;6.43;;;;;;;6.77;69.89;101374.53;5068725;28;20053;-73
2021/04/10 05:40:09;;;;;;;23.13;6.78;;;;;;;6.75;69.79;101364.19;5078376;28;20058;-72
2021/04/10 05:42:35;;;;;;;23.63;7.35;;;;;;;6.75;69.79;101371.19;5083358;28;20056;-72
2021/04/10 05:45:02;;;;;;;21.27;6.43;;;;;;;6.78;69.95;101373.56;5072380;28;20828;-72
2021/04/10 05:47:28;;;;;;;15.98;6.70;;;;;;;6.82;69.53;101381.09;5074457;28;20052;-72
2021/04/10 05:49:54;;;;;;;38.47;7.00;;;;;;;6.83;69.05;101379.31;5071689;28;20055;-73
2021/04/10 05:52:20;;;;;;;16.90;5.97;;;;;;;6.83;69.09;101387.94;5075392;28;20056;-73
2021/04/10 05:54:47;;;;;;;18.20;5.82;;;;;;;6.88;69.19;101387.63;5064250;28;20056;-73
2021/04/10 05:57:13;;;;;;;28.95;7.20;;;;;;;6.89;68.76;101402.34;5057948;28;20048;-73
2021/04/10 05:59:39;;;;;;;28.13;6.50;;;;;;;6.90;68.97;101401.41;5075643;28;20052;-73
2021/04/10 06:02:06;;;;;;;21.60;5.80;;;;;;;6.95;68.72;101406.28;5068778;28;20540;-73
2021/04/10 06:04:36;;;;;;;18.35;5.85;;;;;;;6.96;68.48;101402.72;5050083;28;20056;-73
2021/04/10 06:07:03;;;;;;;17.27;6.10;;;;;;;7.00;68.94;101406.78;5078689;28;20054;-73
2021/04/10 06:09:29;;;;;;;25.45;6.10;;;;;;;7.03;68.72;101399.56;5083655;28;20578;-73
2021/04/10 06:11:56;;;;;;;21.95;5.35;;;;;;;7.00;68.07;101406.78;5083841;28;20085;-73
2021/04/10 06:14:22;;;;;;;24.05;5.65;;;;;;;7.01;68.63;101398.03;5069287;28;20064;-74
2021/04/10 06:16:49;;;;;;;20.95;5.25;;;;;;;7.01;67.88;101398.03;5077833;28;20052;-73
2021/04/10 06:19:17;;;;;;;26.73;4.90;;;;;;;7.04;67.90;101405.66;5070646;28;20048;-73
2021/04/10 06:21:44;;;;;;;18.55;4.90;;;;;;;7.04;67.81;101405.66;5082756;28;20048;-73
2021/04/10 06:24:13;;;;;;;16.80;4.68;;;;;;;7.06;67.12;101409.81;5070590;28;20153;-74
2021/04/10 06:26:48;;;;;;;18.17;5.63;;;;;;;7.04;67.43;101410.88;5060934;28;20579;-74
2021/04/10 06:29:14;;;;;;;16.77;5.00;;;;;;;7.11;67.40;101420.75;5072590;28;20090;-73
2021/04/10 06:31:41;;;;;;;16.25;5.60;;;;;;;7.11;67.25;101412.06;5047714;28;20596;-73
2021/04/10 06:34:07;;;;;;;15.65;5.72;;;;;;;7.13;67.85;101421.47;5073336;28;20043;-73
2021/04/10 06:36:34;;;;;;;17.05;6.07;;;;;;;7.15;67.40;101416.13;5063430;28;20157;-73
2021/04/10 06:39:01;;;;;;;20.02;6.18;;;;;;;7.16;67.81;101412.59;5077084;28;20079;-73
2021/04/10 06:41:27;;;;;;;19.30;5.65;;;;;;;7.25;67.64;101418.91;5062131;28;20731;-73
2021/04/10 06:43:53;;;;;;;17.73;4.85;;;;;;;7.28;67.67;101421.31;5077214;28;20052;-73
2021/04/10 06:46:22;;;;;;;15.57;4.68;;;;;;;7.30;66.96;101427.25;5077305;28;20048;-73
2021/04/10 06:48:53;;;;;;;14.00;4.45;;;;;;;7.27;67.03;101427.47;5069140;28;20097;-73
2021/04/10 06:51:21;;;;;;;19.50;5.57;;;;;;;7.30;67.29;101425.47;5068822;28;20056;-73
2021/04/10 06:53:47;;;;;;;15.70;5.50;;;;;;;7.35;67.19;101432.13;5064204;28;20049;-73
2021/04/10 06:56:20;;;;;;;21.27;5.40;;;;;;;7.40;66.96;101425.63;5066198;28;20094;-72
2021/04/10 06:59:05;;;;;;;16.35;5.70;;;;;;;7.39;66.74;101429.22;5057457;28;20052;-73
2021/04/10 07:01:34;;;;;;;20.45;5.63;;;;;;;7.40;66.43;101437.88;5081833;28;20052;-73
2021/04/10 07:04:00;;;;;;;17.77;5.10;;;;;;;7.41;66.84;101440.38;5075772;28;20104;-72
2021/04/10 07:06:26;;;;;;;11.93;4.38;;;;;;;7.45;66.60;101439.19;5080108;28;20055;-72
2021/04/10 07:08:53;;;;;;;16.60;4.72;;;;;;;7.43;66.73;101440.22;5054798;28;20137;-73
2021/04/10 07:11:19;;;;;;;16.15;5.05;;;;;;;7.47;66.67;101439.94;5062249;28;20068;-74
2021/04/10 07:13:46;;;;;;;15.48;5.13;;;;;;;7.49;66.26;101437.22;5073596;28;20449;-72
2021/04/10 07:16:12;;;;;;;20.30;6.05;;;;;;;7.54;66.16;101442.91;5064501;28;20056;-73
2021/04/10 07:18:38;;;;;;;16.40;5.60;;;;;;;7.50;66.59;101436.25;5080770;28;20051;-73
2021/04/10 07:21:24;;;;;;;19.55;6.00;;;;;;;7.55;67.01;101434.16;5051726;28;20577;-73
2021/04/10 07:23:53;;;;;;;13.27;5.30;;;;;;;7.63;66.98;101450.09;5058820;28;20656;-73
2021/04/10 07:26:23;;;;;;;19.75;5.93;;;;;;;7.70;66.94;101447.84;5070016;28;20102;-72
2021/04/10 07:28:49;;;;;;;19.48;6.28;;;;;;;7.70;66.94;101453.06;5074134;28;20052;-72
2021/04/10 07:31:16;;;;;;;21.30;6.30;;;;;;;7.72;66.13;101446.81;5080458;28;20055;-73
2021/04/10 07:33:56;;;;;;;23.30;6.47;;;;;;;7.76;66.08;101449.19;5069150;28;20110;-73
2021/04/10 07:36:22;;;;;;;21.80;6.32;;;;;;;7.72;65.90;101452.03;5071633;28;20048;-72
2021/04/10 07:38:56;;;;;;;22.90;6.55;;;;;;;7.80;66.26;101456.69;5070078;28;20454;-73
2021/04/10 07:41:23;;;;;;;18.95;6.68;;;;;;;7.85;66.41;101449.34;5078565;28;20779;-72
2021/04/10 07:43:49;;;;;;;25.05;5.88;;;;;;;7.94;66.27;101450.44;5058254;28;20055;-72
2021/04/10 07:46:26;;;;;;;11.88;4.68;;;;;;;8.00;66.60;101457.81;5060382;28;20122;-72
2021/04/10 07:49:11;;;;;;;17.45;5.68;;;;;;;8.09;66.19;101459.72;5077017;28;20056;-73
2021/04/10 07:51:52;;;;;;;27.13;5.93;;;;;;;8.18;66.02;101462.63;5074533;28;20848;-72
2021/04/10 07:54:33;;;;;;;19.10;5.13;;;;;;;8.24;65.44;101468.22;5061762;28;20059;-72
2021/04/10 07:57:04;;;;;;;17.80;5.55;;;;;;;8.30;65.08;101466.94;5078622;28;20056;-72
2021/04/10 07:59:33;;;;;;;14.90;4.93;;;;;;;8.36;65.62;101461.22;5062243;28;20051;-72
2021/04/10 08:02:10;;;;;;;19.67;4.78;;;;;;;8.39;65.32;101463.63;5078177;28;20056;-73
2021/04/10 08:04:38;;;;;;;20.10;4.90;;;;;;;8.45;65.20;101457.13;5067117;28;20847;-73
2021/04/10 08:07:04;;;;;;;14.57;4.78;;;;;;;8.45;64.91;101462.38;5070209;28;20720;-74
2021/04/10 08:09:36;;;;;;;17.90;5.50;;;;;;;8.52;65.13;101466.16;5080430;28;20063;-73
2021/04/10 08:12:11;;;;;;;16.92;5.22;;;;;;;8.54;64.73;101466.03;5055085;28;20049;-73
2021/04/10 08:14:41;;;;;;;22.00;5.57;;;;;;;8.58;64.36;101470.91;5078273;28;20090;-75
2021/04/10 08:17:07;;;;;;;14.82;4.75;;;;;;;8.62;63.86;101464.50;5081015;28;20044;-74
2021/04/10 08:19:35;;;;;;;15.07;4.88;;;;;;;8.69;63.87;101464.88;5070997;28;20480;-73
2021/04/10 08:22:03;;;;;;;19.15;4.75;;;;;;;8.74;63.35;101462.72;5077353;28;20839;-74
2021/04/10 08:24:30;;;;;;;18.98;4.63;;;;;;;8.81;63.12;101468.31;5066615;28;20133;-73
2021/04/10 08:27:02;;;;;;;19.08;5.22;;;;;;;8.81;63.11;101468.31;5082897;28;20052;-74
2021/04/10 08:29:29;;;;;;;13.27;4.95;;;;;;;8.85;63.19;101474.97;5065510;28;20052;-75
2021/04/10 08:31:56;;;;;;;20.38;5.57;;;;;;;8.89;63.19;101476.41;5061012;28;20052;-74
2021/04/10 08:34:22;;;;;;;16.52;5.25;;;;;;;8.95;62.69;101488.19;5076771;28;20143;-75
2021/04/10 08:36:51;;;;;;;15.23;5.22;;;;;;;8.97;63.14;101476.63;5079299;28;20094;-75
2021/04/10 08:39:19;;;;;;;21.35;5.82;;;;;;;9.04;63.02;101483.06;5073310;28;20511;-75
2021/04/10 08:41:47;;;;;;;22.23;5.28;;;;;;;9.08;62.61;101478.44;5074578;28;20641;-75
2021/04/10 08:44:16;;;;;;;16.67;4.85;;;;;;;9.08;62.36;101474.00;5054877;28;20051;-75
2021/04/10 08:46:44;;;;;;;16.52;4.70;;;;;;;9.15;62.64;101465.69;5063476;28;20433;-76
2021/04/10 08:49:12;;;;;;;;;;;;;;;9.22;62.41;101478.16;5071062;28;20045;-73
2021/04/10 08:51:39;;;;;;;24.75;5.63;;;;;;;9.25;62.04;101467.47;5068116;28;20466;-73
2021/04/10 08:54:12;;;;;;;16.67;4.55;;;;;;;9.18;62.03;101466.28;5071259;28;20101;-73
2021/04/10 08:56:39;;;;;;;16.73;4.22;;;;;;;9.22;61.74;101466.88;5076339;28;20044;-73
2021/04/10 08:59:14;;;;;;;16.92;4.30;;;;;;;9.24;61.92;101460.53;5076034;28;20043;-73
2021/04/10 09:01:42;;;;;;;14.60;4.53;;;;;;;9.24;61.38;101463.16;5070948;28;20569;-74
2021/04/10 09:04:10;;;;;;;14.88;4.28;;;;;;;9.29;60.62;101461.03;5055145;28;20517;-73
2021/04/10 09:06:36;;;;;;;18.58;5.30;;;;;;;9.38;60.47;101464.69;5065323;28;20051;-73
2021/04/10 09:09:28;;;;;;;17.77;4.88;;;;;;;9.46;60.65;101459.66;5076509;28;20221;-72
2021/04/10 09:12:21;;;;;;;18.98;4.53;;;;;;;9.56;59.78;101454.50;5061257;28;20499;-73
2021/04/10 09:14:49;;;;;;;23.63;5.55;;;;;;;9.57;60.47;101458.81;5071727;28;20061;-73
2021/04/10 09:17:16;;;;;;;19.50;5.40;;;;;;;9.55;60.11;101460.72;5070184;28;20060;-73
2021/04/10 09:19:42;;;;;;;17.20;4.47;;;;;;;9.62;60.27;101451.38;5077501;28;20048;-73
2021/04/10 09:22:15;;;;;;;17.52;4.13;;;;;;;9.67;59.80;101464.13;5070454;28;20048;-72
2021/04/10 09:24:45;;;;;;;16.05;4.30;;;;;;;9.61;59.73;101462.00;5079075;28;20519;-73
2021/04/10 09:27:19;;;;;;;15.60;4.35;;;;;;;9.61;59.81;101468.06;5048935;28;20063;-72
2021/04/10 09:29:55;;;;;;;13.73;4.35;;;;;;;9.59;59.66;101471.78;5062135;28;20044;-72
2021/04/10 09:32:42;;;;;;;17.73;5.18;;;;;;;9.57;59.40;101471.91;5059715;28;20064;-72
2021/04/10 09:35:19;;;;;;;22.95;5.13;;;;;;;9.51;59.91;101467.16;5080559;28;20048;-73
2021/04/10 09:37:47;;;;;;;19.48;4.53;;;;;;;9.52;60.09;101468.81;5059218;28;20117;-73
2021/04/10 09:40:44;;;;;;;14.10;4.47;;;;;;;9.54;59.92;101472.13;5063241;28;20076;-73
2021/04/10 09:43:10;;;;;;;14.23;3.90;;;;;;;9.50;60.00;101462.84;5058214;28;20052;-73
2021/04/10 09:45:37;;;;;;;14.15;5.18;;;;;;;9.59;60.27;101471.78;5075179;28;20142;-73
2021/04/10 09:48:04;;;;;;;14.70;4.40;;;;;;;9.60;60.12;101471.63;5077184;28;20052;-73
2021/04/10 09:50:35;;;;;;;17.17;5.35;;;;;;;9.63;60.61;101473.19;5058729;28;20812;-73
2021/04/10 09:53:02;;;;;;;12.95;4.85;;;;;;;9.62;60.73;101466.28;5069750;28;20048;-73
2021/04/10 09:55:31;;;;;;;17.58;4.07;;;;;;;9.60;60.14;101468.19;5063099;28;20145;-73
2021/04/10 09:58:00;;;;;;;12.40;4.50;;;;;;;9.59;59.65;101475.22;5054159;28;20121;-74
2021/04/10 10:00:27;;;;;;;;;;;;;;;9.60;59.37;101474.25;5078923;28;20490;-74
2021/04/10 10:02:54;;;;;;;16.58;4.10;;;;;;;9.57;59.29;101468.44;5059568;28;19931;-74
2021/04/10 10:05:22;;;;;;;14.87;5.30;;;;;;;9.53;59.24;101467.03;5049254;28;20056;-74
2021/04/10 10:07:50;;;;;;;17.92;4.10;;;;;;;9.53;59.09;101469.66;5050602;28;20056;-73
2021/04/10 10:10:16;;;;;;;20.02;5.85;;;;;;;9.50;59.12;101465.47;5082708;28;20047;-74
2021/04/10 10:12:43;;;;;;;16.02;6.22;;;;;;;9.39;59.46;101465.50;5073028;28;20053;-74
2021/04/10 10:15:22;;;;;;;17.40;4.65;;;;;;;9.42;59.72;101463.47;5068260;28;20060;-74
2021/04/10 10:17:48;;;;;;;14.32;4.97;;;;;;;9.39;60.75;101457.66;5050460;28;20918;-74
2021/04/10 10:20:15;;;;;;;13.65;4.75;;;;;;;9.42;60.43;101457.41;5070852;28;20047;-74
2021/04/10 10:22:42;;;;;;;26.20;5.50;;;;;;;9.52;61.14;101453.09;5075413;28;20093;-74
2021/04/10 10:25:09;;;;;;;19.50;6.10;;;;;;;9.54;60.88;101469.50;5067190;28;20048;-76
2021/04/10 10:27:38;;;;;;;28.92;6.22;;;;;;;9.53;61.13;101462.63;5065675;28;20052;-75
2021/04/10 10:30:17;;;;;;;15.80;6.15;;;;;;;9.48;61.67;101462.97;5067849;28;20044;-75
2021/04/10 10:32:44;;;;;;;;;;;;;;;9.54;62.36;101463.44;5079360;28;20048;-74
2021/04/10 10:35:11;;;;;;;13.23;5.70;;;;;;;9.59;62.93;101456.88;5059316;28;19938;-74
2021/04/10 10:37:37;;;;;;;17.58;6.13;;;;;;;9.55;62.16;101452.03;5080258;28;20082;-74
2021/04/10 10:40:04;;;;;;;18.38;5.65;;;;;;;9.53;63.20;101457.38;5069182;28;20060;-73
2021/04/10 10:42:30;;;;;;;17.08;6.10;;;;;;;9.44;63.04;101456.31;5069622;28;20053;-75
2021/04/10 10:44:56;;;;;;;16.70;6.88;;;;;;;9.44;63.65;101456.31;5078661;28;20067;-73
2021/04/10 10:47:26;;;;;;;25.45;7.18;;;;;;;9.47;64.13;101450.84;5069772;28;20056;-73
2021/04/10 10:49:53;;;;;;;26.75;5.82;;;;;;;9.53;64.01;101453.94;5053213;28;20129;-74
2021/04/10 10:52:19;;;;;;;19.23;7.13;;;;;;;9.55;63.81;101449.41;5067680;28;20048;-74
2021/04/10 10:54:49;;;;;;;14.13;6.32;;;;;;;9.42;63.65;101441.69;5078055;28;20777;-74
2021/04/10 10:57:17;;;;;;;27.58;6.65;;;;;;;9.44;64.33;101443.22;5044455;28;20079;-74
2021/04/10 11:00:08;;;;;;;17.70;6.78;;;;;;;9.39;64.75;101439.31;5071416;28;20160;-73
2021/04/10 11:02:35;;;;;;;23.90;7.70;;;;;;;9.45;64.84;101446.72;5069098;28;20102;-73
2021/04/10 11:05:01;;;;;;;20.05;7.65;;;;;;;9.32;64.92;101431.13;5083423;28;20052;-73
2021/04/10 11:07:28;;;;;;;19.00;7.97;;;;;;;9.31;65.35;101429.50;5081073;28;20056;-73
2021/04/10 11:09:55;;;;;;;21.38;8.27;;;;;;;9.28;66.23;101427.09;5078198;28;20156;-74
2021/04/10 11:12:23;;;;;;;21.67;8.55;;;;;;;9.21;66.38;101420.69;5064069;28;20085;-74
2021/04/10 11:14:57;;;;;;;24.65;11.05;;;;;;;9.21;66.94;101416.31;5074280;28;20047;-74
2021/04/10 11:17:30;;;;;;;27.33;10.48;;;;;;;9.20;67.26;101409.38;5082451;28;20484;-75
2021/04/10 11:19:58;;;;;;;24.65;11.05;;;;;;;9.22;68.04;101402.25;5069995;28;20052;-74
2021/04/10 11:22:26;;;;;;;23.67;11.60;;;;;;;9.24;67.64;101409.97;5076054;28;20056;-73
2021/04/10 11:24:52;;;;;;;25.65;11.20;;;;;;;9.32;68.17;101396.28;5064726;28;20616;-73
2021/04/10 11:27:24;;;;;;;24.75;11.32;;;;;;;9.35;66.80;101396.00;5060929;28;20689;-73
2021/04/10 11:29:51;;;;;;;25.83;12.15;;;;;;;9.36;67.17;101385.41;5075461;28;20044;-74
2021/04/10 11:32:31;;;;;;;24.67;11.70;;;;;;;9.37;67.26;101394.94;5057069;28;20052;-74
2021/04/10 11:35:02;;;;;;;21.67;11.98;;;;;;;9.34;67.44;101386.50;5065272;28;20487;-75